Time;durP1;ratioP1;P1;durP2;ratioP2;P2;SDS_P1;SDS_P2;PMS_P1;PMS_P2;Temp;Humidity;BMP_temperature;BMP_pressure;BME280_temperature;BME280_humidity;BME280_pressure;Samples;Min_cycle;Max_cycle;Signal;HPM_P1;HPM_P2
2023/01/20 00:00:42;;;;;;;14.07;7.18;;;;;;;;;;4934799;28;20035;-84
2023/01/20 00:03:07;;;;;;;15.38;7.30;;;;;;;;;;4867357;29;20072;-84
2023/01/20 00:05:32;;;;;;;13.45;7.30;;;;;;;;;;4882006;29;20473;-85
2023/01/20 00:08:18;;;;;;;11.77;6.68;;;;;;;;;;4867921;29;20569;-83
2023/01/20 00:10:43;;;;;;;11.95;6.90;;;;;;;;;;4830000;29;20507;-84
2023/01/20 00:13:09;;;;;;;15.10;7.20;;;;;;;;;;4830412;29;20098;-84
2023/01/20 00:15:34;;;;;;;12.77;6.90;;;;;;;;;;4814858;29;20537;-85
2023/01/20 00:17:59;;;;;;;14.77;7.50;;;;;;;;;;4831136;29;20042;-83
2023/01/20 00:20:25;;;;;;;13.50;7.35;;;;;;;;;;4816154;29;20121;-84
2023/01/20 00:22:50;;;;;;;13.85;6.90;;;;;;;;;;4829633;29;20217;-84
2023/01/20 00:25:16;;;;;;;13.80;6.90;;;;;;;;;;4876842;29;20037;-84
2023/01/20 00:27:41;;;;;;;14.27;7.28;;;;;;;;;;4878981;29;20100;-84
2023/01/20 00:30:07;;;;;;;13.95;7.47;;;;;;;;;;4877582;29;20041;-85
2023/01/20 00:32:43;;;;;;;12.10;6.28;;;;;;;;;;4877931;29;20163;-85
2023/01/20 00:35:09;;;;;;;16.00;7.68;;;;;;;;;;4878715;29;20045;-83
2023/01/20 00:37:35;;;;;;;13.45;6.43;;;;;;;;;;4878156;29;20088;-84
2023/01/20 00:40:00;;;;;;;15.95;6.93;;;;;;;;;;4896232;28;20542;-84
2023/01/20 00:42:25;;;;;;;13.40;6.85;;;;;;;;;;4960126;28;20078;-85
2023/01/20 00:44:51;;;;;;;14.25;6.03;;;;;;;;;;4948688;28;20050;-84
2023/01/20 00:47:16;;;;;;;14.65;6.60;;;;;;;;;;4984641;28;20037;-83
2023/01/20 00:49:42;;;;;;;15.80;6.88;;;;;;;;;;5028738;28;20033;-84
2023/01/20 00:52:07;;;;;;;12.95;6.63;;;;;;;;;;5014254;28;21021;-84
2023/01/20 00:54:32;;;;;;;12.60;6.25;;;;;;;;;;5011926;28;20464;-84
2023/01/20 00:56:58;;;;;;;14.23;6.90;;;;;;;;;;5010832;28;20064;-85
2023/01/20 00:59:23;;;;;;;12.95;6.20;;;;;;;;;;5032259;28;20032;-85
2023/01/20 01:01:49;;;;;;;15.02;6.93;;;;;;;;;;5009325;28;20056;-84
2023/01/20 01:04:14;;;;;;;13.90;6.25;;;;;;;;;;5016103;28;20078;-84
2023/01/20 01:06:39;;;;;;;17.83;7.28;;;;;;;;;;5025974;28;20035;-84
2023/01/20 01:09:05;;;;;;;16.85;6.95;;;;;;;;;;5027373;28;20041;-84
2023/01/20 01:11:30;;;;;;;16.55;6.75;;;;;;;;;;5026898;28;20040;-84
2023/01/20 01:13:58;;;;;;;15.48;6.93;;;;;;;;;;5028195;28;20428;-84
2023/01/20 01:16:24;;;;;;;13.30;6.63;;;;;;;;;;5010837;28;20036;-85
2023/01/20 01:18:52;;;;;;;14.63;6.60;;;;;;;;;;5046251;28;20037;-84
2023/01/20 01:21:17;;;;;;;13.57;6.55;;;;;;;;;;5015515;28;20037;-84
2023/01/20 01:23:43;;;;;;;14.27;7.45;;;;;;;;;;5045526;28;20040;-84
2023/01/20 01:26:09;;;;;;;14.52;6.75;;;;;;;;;;5027592;28;20033;-84
2023/01/20 01:28:34;;;;;;;13.50;6.57;;;;;;;;;;5023417;28;20040;-85
2023/01/20 01:31:02;;;;;;;15.05;6.40;;;;;;;;;;5043580;28;20025;-84
2023/01/20 01:33:28;;;;;;;;;;;;;;;;;;5027118;28;20040;-84
2023/01/20 01:35:57;;;;;;;11.82;5.65;;;;;;;;;;5044155;28;20385;-84
2023/01/20 01:38:23;;;;;;;11.60;5.53;;;;;;;;;;5043909;28;20029;-84
2023/01/20 01:40:50;;;;;;;12.43;6.18;;;;;;;;;;5026973;28;20152;-85
2023/01/20 01:43:36;;;;;;;13.57;6.28;;;;;;;;;;5027787;28;20102;-85
2023/01/20 01:46:02;;;;;;;11.00;5.90;;;;;;;;;;5035196;28;20040;-85
2023/01/20 01:48:44;;;;;;;13.73;6.47;;;;;;;;;;5027210;28;20032;-84
2023/01/20 01:51:19;;;;;;;13.90;6.13;;;;;;;;;;5016631;28;20030;-85
2023/01/20 01:53:54;;;;;;;12.68;6.32;;;;;;;;;;5043689;28;20474;-86
2023/01/20 01:56:23;;;;;;;12.05;6.57;;;;;;;;;;5020099;28;20040;-84
2023/01/20 01:58:51;;;;;;;11.75;5.75;;;;;;;;;;5018247;28;20503;-83
2023/01/20 02:01:16;;;;;;;12.95;6.63;;;;;;;;;;5029713;28;20132;-84
2023/01/20 02:04:03;;;;;;;12.80;6.00;;;;;;;;;;5027142;28;20441;-85
2023/01/20 02:06:32;;;;;;;10.45;5.30;;;;;;;;;;5018771;28;20029;-84
2023/01/20 02:08:59;;;;;;;14.32;6.15;;;;;;;;;;5043654;28;20633;-84
2023/01/20 02:11:25;;;;;;;12.40;6.40;;;;;;;;;;5043045;28;20480;-84
2023/01/20 02:14:10;;;;;;;18.10;7.03;;;;;;;;;;5043898;28;20025;-84
2023/01/20 02:16:44;;;;;;;12.02;6.03;;;;;;;;;;4982515;28;20530;-84
2023/01/20 02:19:30;;;;;;;16.67;6.75;;;;;;;;;;4966189;28;20066;-84
2023/01/20 02:22:16;;;;;;;10.80;5.82;;;;;;;;;;4965814;28;20496;-83
2023/01/20 02:25:23;;;;;;;15.55;6.40;;;;;;;;;;4983053;28;20421;-83
2023/01/20 02:27:49;;;;;;;;;;;;;;;;;;4965850;28;20601;-84
2023/01/20 02:31:00;;;;;;;13.80;6.32;;;;;;;;;;4970244;28;20008;-84
2023/01/20 02:33:41;;;;;;;11.45;5.75;;;;;;;;;;4968235;28;20062;-84
2023/01/20 02:36:11;;;;;;;15.27;6.40;;;;;;;;;;4966211;28;20065;-84
2023/01/20 02:39:09;;;;;;;12.95;6.32;;;;;;;;;;4965574;28;20505;-82
2023/01/20 02:42:07;;;;;;;11.55;6.20;;;;;;;;;;4950417;28;20054;-84
2023/01/20 02:44:55;;;;;;;13.52;6.25;;;;;;;;;;4943052;28;20129;-84
2023/01/20 02:47:33;;;;;;;10.25;5.97;;;;;;;;;;4981196;28;20034;-83
2023/01/20 02:50:20;;;;;;;14.52;7.20;;;;;;;;;;4965712;28;20034;-84
2023/01/20 02:52:50;;;;;;;16.70;7.50;;;;;;;;;;4973221;28;20042;-85
2023/01/20 02:55:21;;;;;;;17.70;7.25;;;;;;;;;;5025278;28;20041;-85
2023/01/20 02:57:52;;;;;;;15.13;7.18;;;;;;;;;;5011037;28;20446;-84
2023/01/20 03:00:24;;;;;;;17.27;7.13;;;;;;;;;;5010833;28;20048;-84
2023/01/20 03:02:52;;;;;;;18.40;8.10;;;;;;;;;;5026048;28;20045;-84
2023/01/20 03:05:25;;;;;;;14.40;7.63;;;;;;;;;;5024997;28;20029;-84
2023/01/20 03:08:11;;;;;;;16.38;7.47;;;;;;;;;;5002537;28;20473;-84
2023/01/20 03:10:37;;;;;;;15.02;7.10;;;;;;;;;;4946475;28;20035;-82
2023/01/20 03:13:25;;;;;;;16.75;7.63;;;;;;;;;;4962939;28;20041;-83
2023/01/20 03:15:55;;;;;;;;;;;;;;;;;;4962312;28;21051;-83
2023/01/20 03:18:21;;;;;;;13.82;7.30;;;;;;;;;;4962502;28;19920;-85
2023/01/20 03:20:47;;;;;;;15.02;7.60;;;;;;;;;;4934630;28;20082;-85
2023/01/20 03:23:12;;;;;;;18.02;8.57;;;;;;;;;;4931618;28;20042;-86
2023/01/20 03:25:39;;;;;;;18.55;8.18;;;;;;;;;;4946215;28;20043;-84
2023/01/20 03:28:04;;;;;;;16.60;7.63;;;;;;;;;;4930590;28;20059;-84
2023/01/20 03:30:30;;;;;;;17.00;7.53;;;;;;;;;;4962712;28;20043;-85
2023/01/20 03:32:55;;;;;;;16.77;8.40;;;;;;;;;;4931093;28;20535;-83
2023/01/20 03:35:23;;;;;;;17.67;8.43;;;;;;;;;;4946936;28;20122;-84
2023/01/20 03:37:49;;;;;;;19.00;7.68;;;;;;;;;;4931027;28;20105;-83
2023/01/20 03:40:15;;;;;;;17.33;8.23;;;;;;;;;;4934868;28;20451;-84
2023/01/20 03:43:12;;;;;;;18.15;8.35;;;;;;;;;;4962016;28;20607;-84
2023/01/20 03:46:02;;;;;;;15.20;8.00;;;;;;;;;;4960429;28;20503;-83
2023/01/20 03:48:50;;;;;;;17.58;8.25;;;;;;;;;;4989952;28;20034;-84
2023/01/20 03:51:16;;;;;;;19.30;8.27;;;;;;;;;;5024033;28;20157;-84
2023/01/20 03:53:52;;;;;;;16.30;8.80;;;;;;;;;;5042439;28;20115;-84
2023/01/20 03:56:27;;;;;;;18.98;8.85;;;;;;;;;;5001958;28;20396;-83
2023/01/20 03:58:55;;;;;;;18.25;9.13;;;;;;;;;;5024085;28;20044;-83
2023/01/20 04:01:35;;;;;;;21.58;9.63;;;;;;;;;;5040156;28;20397;-84
2023/01/20 04:04:01;;;;;;;18.92;9.90;;;;;;;;;;5002390;28;20411;-84
2023/01/20 04:06:27;;;;;;;18.63;10.03;;;;;;;;;;5023328;28;20612;-84
2023/01/20 04:08:57;;;;;;;16.83;9.13;;;;;;;;;;5025807;28;21236;-84
2023/01/20 04:11:23;;;;;;;23.30;9.88;;;;;;;;;;5023954;28;20029;-84
2023/01/20 04:13:49;;;;;;;19.30;9.55;;;;;;;;;;5025858;28;20396;-84
2023/01/20 04:16:16;;;;;;;21.85;9.30;;;;;;;;;;5000564;28;20160;-84
2023/01/20 04:18:44;;;;;;;19.45;10.43;;;;;;;;;;5043835;28;20089;-85
2023/01/20 04:21:15;;;;;;;21.58;10.23;;;;;;;;;;5015119;28;20041;-84
2023/01/20 04:23:50;;;;;;;18.83;10.15;;;;;;;;;;5013484;28;20112;-84
2023/01/20 04:26:16;;;;;;;17.58;9.27;;;;;;;;;;5021904;28;20443;-83
2023/01/20 04:28:41;;;;;;;20.63;9.65;;;;;;;;;;5028788;28;20149;-84
2023/01/20 04:31:07;;;;;;;20.52;10.18;;;;;;;;;;5028611;28;20381;-84
2023/01/20 04:33:36;;;;;;;20.55;9.68;;;;;;;;;;5028317;28;20040;-84
2023/01/20 04:36:04;;;;;;;20.90;9.48;;;;;;;;;;5026526;28;20025;-84
2023/01/20 04:38:29;;;;;;;22.10;9.95;;;;;;;;;;5012729;28;20037;-82
2023/01/20 04:40:54;;;;;;;18.88;8.88;;;;;;;;;;5023587;28;20167;-83
2023/01/20 04:43:20;;;;;;;22.42;10.20;;;;;;;;;;5020264;28;20971;-83
2023/01/20 04:46:05;;;;;;;19.52;8.65;;;;;;;;;;5012082;28;20436;-83
2023/01/20 04:48:31;;;;;;;18.88;9.70;;;;;;;;;;4987278;28;20050;-83
2023/01/20 04:50:56;;;;;;;21.65;10.30;;;;;;;;;;4967342;28;20081;-83
2023/01/20 04:53:21;;;;;;;21.65;10.82;;;;;;;;;;4952578;28;20038;-83
2023/01/20 04:55:47;;;;;;;20.58;10.15;;;;;;;;;;4968546;28;20034;-84
2023/01/20 04:58:33;;;;;;;20.77;10.43;;;;;;;;;;4952698;28;20517;-83
2023/01/20 05:01:00;;;;;;;20.85;9.25;;;;;;;;;;4926204;29;20137;-83
2023/01/20 05:03:26;;;;;;;20.45;9.70;;;;;;;;;;4927298;29;20514;-87
2023/01/20 05:05:53;;;;;;;20.02;10.15;;;;;;;;;;4911256;29;20040;-83
2023/01/20 05:08:18;;;;;;;22.03;8.53;;;;;;;;;;4911749;29;20083;-83
2023/01/20 05:10:44;;;;;;;22.67;10.88;;;;;;;;;;4909561;29;20077;-83
2023/01/20 05:13:09;;;;;;;21.00;10.65;;;;;;;;;;4895100;29;20212;-82
2023/01/20 05:15:35;;;;;;;17.08;9.57;;;;;;;;;;4910795;29;20130;-82
2023/01/20 05:18:00;;;;;;;21.30;10.13;;;;;;;;;;4910269;29;20503;-82
2023/01/20 05:20:46;;;;;;;20.48;9.35;;;;;;;;;;4892714;29;20048;-81
2023/01/20 05:23:11;;;;;;;17.25;9.88;;;;;;;;;;4870023;29;20051;-83
2023/01/20 05:25:37;;;;;;;22.15;10.70;;;;;;;;;;4872342;29;20047;-83
2023/01/20 05:28:02;;;;;;;22.42;10.75;;;;;;;;;;4875334;29;20048;-82
2023/01/20 05:30:27;;;;;;;24.85;10.98;;;;;;;;;;4891780;29;20293;-83
2023/01/20 05:32:53;;;;;;;23.52;10.43;;;;;;;;;;4875514;29;20047;-83
2023/01/20 05:35:18;;;;;;;25.02;11.02;;;;;;;;;;4878985;29;20057;-84
2023/01/20 05:37:44;;;;;;;25.48;11.38;;;;;;;;;;4871330;29;20439;-84
2023/01/20 05:40:10;;;;;;;26.73;11.40;;;;;;;;;;4928568;29;20043;-83
2023/01/20 05:42:36;;;;;;;24.70;10.95;;;;;;;;;;4929110;28;20043;-84
2023/01/20 05:45:01;;;;;;;23.02;10.60;;;;;;;;;;4915750;29;20035;-83
2023/01/20 05:47:27;;;;;;;22.00;10.57;;;;;;;;;;4932315;29;20035;-83
2023/01/20 05:49:52;;;;;;;24.65;11.57;;;;;;;;;;4933145;29;20102;-83
2023/01/20 05:52:18;;;;;;;25.42;10.77;;;;;;;;;;4908566;29;20098;-85
2023/01/20 05:54:43;;;;;;;24.33;9.95;;;;;;;;;;4933281;29;20039;-87
2023/01/20 05:57:09;;;;;;;18.02;8.98;;;;;;;;;;4944163;28;20118;-85
2023/01/20 05:59:34;;;;;;;20.05;9.90;;;;;;;;;;4954640;28;20049;-85
2023/01/20 06:02:00;;;;;;;20.70;10.07;;;;;;;;;;5025795;28;20039;-86
2023/01/20 06:04:25;;;;;;;24.67;10.38;;;;;;;;;;5028337;28;20037;-86
2023/01/20 06:06:50;;;;;;;24.40;9.90;;;;;;;;;;5012939;28;20526;-84
2023/01/20 06:09:16;;;;;;;22.10;10.88;;;;;;;;;;5027133;28;20554;-84
2023/01/20 06:11:42;;;;;;;22.38;10.88;;;;;;;;;;5008255;28;20049;-84
2023/01/20 06:14:07;;;;;;;22.65;9.35;;;;;;;;;;5010463;28;20036;-86
2023/01/20 06:16:33;;;;;;;24.13;9.63;;;;;;;;;;5012397;28;20032;-85
2023/01/20 06:18:58;;;;;;;23.77;11.02;;;;;;;;;;5027379;28;20048;-86
2023/01/20 06:21:24;;;;;;;22.30;10.98;;;;;;;;;;5012603;28;20522;-86
2023/01/20 06:24:09;;;;;;;24.48;10.65;;;;;;;;;;5024813;28;20090;-87
2023/01/20 06:26:35;;;;;;;24.88;10.40;;;;;;;;;;4953180;28;20041;-87
2023/01/20 06:29:00;;;;;;;26.10;11.27;;;;;;;;;;4952011;28;20050;-86
2023/01/20 06:31:27;;;;;;;23.00;10.48;;;;;;;;;;4947612;28;20125;-87
2023/01/20 06:33:53;;;;;;;24.23;11.48;;;;;;;;;;4941429;28;20066;-84
2023/01/20 06:36:19;;;;;;;23.38;10.95;;;;;;;;;;4947522;28;20451;-85
2023/01/20 06:38:49;;;;;;;22.75;10.85;;;;;;;;;;4949347;28;20123;-83
2023/01/20 06:41:15;;;;;;;23.13;10.85;;;;;;;;;;4951623;28;20549;-85
2023/01/20 06:43:41;;;;;;;23.60;10.98;;;;;;;;;;4936058;28;20659;-83
2023/01/20 06:46:10;;;;;;;25.02;11.13;;;;;;;;;;4970053;28;20035;-84
2023/01/20 06:48:36;;;;;;;24.83;11.07;;;;;;;;;;4970760;28;20050;-83
2023/01/20 06:51:03;;;;;;;29.00;11.63;;;;;;;;;;4972103;28;20068;-85
2023/01/20 06:53:29;;;;;;;24.45;10.13;;;;;;;;;;4944729;28;20055;-86
2023/01/20 06:55:58;;;;;;;24.35;11.05;;;;;;;;;;4944517;28;20143;-83
2023/01/20 06:58:25;;;;;;;29.20;12.65;;;;;;;;;;4952829;28;20039;-87
2023/01/20 07:00:51;;;;;;;23.00;10.90;;;;;;;;;;4966827;28;20042;-86
2023/01/20 07:03:17;;;;;;;25.10;11.40;;;;;;;;;;4964135;28;20915;-86
2023/01/20 07:05:42;;;;;;;26.60;11.85;;;;;;;;;;5004680;28;20037;-86
2023/01/20 07:08:08;;;;;;;27.58;12.35;;;;;;;;;;5025917;28;20033;-86
2023/01/20 07:10:33;;;;;;;24.98;10.45;;;;;;;;;;5008632;28;20037;-87
2023/01/20 07:12:58;;;;;;;23.48;10.13;;;;;;;;;;5026573;28;20033;-86
2023/01/20 07:15:24;;;;;;;23.50;10.32;;;;;;;;;;5025234;28;20493;-86
2023/01/20 07:17:49;;;;;;;29.80;11.98;;;;;;;;;;5008775;28;20132;-85
2023/01/20 07:20:15;;;;;;;22.40;10.27;;;;;;;;;;5025742;28;20099;-87
2023/01/20 07:22:40;;;;;;;23.33;10.30;;;;;;;;;;5025652;28;20123;-86
2023/01/20 07:25:06;;;;;;;28.88;11.95;;;;;;;;;;5027699;28;20036;-87
2023/01/20 07:27:31;;;;;;;25.60;11.00;;;;;;;;;;5029996;28;20087;-87
2023/01/20 07:29:56;;;;;;;31.15;11.98;;;;;;;;;;5030437;28;20111;-87
2023/01/20 07:32:22;;;;;;;28.67;11.88;;;;;;;;;;5029167;28;20042;-87
2023/01/20 07:34:48;;;;;;;24.90;11.15;;;;;;;;;;5045541;28;20419;-87
2023/01/20 07:37:13;;;;;;;28.70;12.55;;;;;;;;;;5027948;28;20125;-88
2023/01/20 07:39:39;;;;;;;31.38;12.85;;;;;;;;;;5034215;28;20041;-87
2023/01/20 07:42:05;;;;;;;32.65;13.05;;;;;;;;;;5030199;28;20039;-87
2023/01/20 07:44:31;;;;;;;28.10;11.88;;;;;;;;;;5045015;28;20044;-87
2023/01/20 07:46:56;;;;;;;27.00;11.05;;;;;;;;;;5045318;28;20151;-87
2023/01/20 07:49:22;;;;;;;27.20;11.38;;;;;;;;;;5045424;28;20103;-87
2023/01/20 07:51:47;;;;;;;29.52;11.93;;;;;;;;;;5047191;28;20055;-83
2023/01/20 07:54:12;;;;;;;30.88;12.13;;;;;;;;;;5033005;28;20040;-83
2023/01/20 07:56:38;;;;;;;30.98;12.70;;;;;;;;;;5048707;28;20040;-83
2023/01/20 07:59:03;;;;;;;28.02;11.65;;;;;;;;;;5048800;28;20501;-83
2023/01/20 08:01:30;;;;;;;31.08;12.35;;;;;;;;;;5031724;28;20041;-84
2023/01/20 08:03:57;;;;;;;34.63;13.83;;;;;;;;;;5050365;28;20035;-85
2023/01/20 08:06:24;;;;;;;27.08;11.15;;;;;;;;;;5052706;28;20062;-85
2023/01/20 08:08:49;;;;;;;32.22;12.88;;;;;;;;;;5050115;28;20029;-83
2023/01/20 08:11:17;;;;;;;26.73;11.98;;;;;;;;;;5032703;28;20479;-84
2023/01/20 08:13:43;;;;;;;31.58;11.90;;;;;;;;;;5031973;28;20041;-84
2023/01/20 08:16:10;;;;;;;27.88;11.63;;;;;;;;;;5047915;28;20117;-85
2023/01/20 08:18:36;;;;;;;31.70;12.18;;;;;;;;;;5032195;28;20536;-85
2023/01/20 08:21:05;;;;;;;28.77;12.38;;;;;;;;;;5051661;28;20044;-90
2023/01/20 08:23:31;;;;;;;26.20;11.85;;;;;;;;;;5035863;28;20076;-90
2023/01/20 08:26:01;;;;;;;28.60;11.63;;;;;;;;;;5048900;28;20143;-91
2023/01/20 08:28:26;;;;;;;30.33;12.15;;;;;;;;;;5032361;28;20037;-88
2023/01/20 08:30:52;;;;;;;30.85;12.98;;;;;;;;;;5048296;28;20032;-89
2023/01/20 08:33:17;;;;;;;26.88;11.68;;;;;;;;;;5035614;28;20032;-90
2023/01/20 08:35:43;;;;;;;26.55;11.18;;;;;;;;;;5033128;28;20044;-91
2023/01/20 08:38:08;;;;;;;24.83;11.23;;;;;;;;;;5037468;28;20047;-91
2023/01/20 08:40:34;;;;;;;30.25;12.82;;;;;;;;;;5033360;28;20037;-91
2023/01/20 08:42:59;;;;;;;32.50;13.10;;;;;;;;;;5038462;28;20032;-90
2023/01/20 08:45:25;;;;;;;27.52;11.80;;;;;;;;;;5031695;28;20485;-90
2023/01/20 08:47:50;;;;;;;26.83;11.93;;;;;;;;;;5049602;28;20032;-90
2023/01/20 08:50:16;;;;;;;29.95;11.95;;;;;;;;;;5032213;28;20036;-88
2023/01/20 08:52:41;;;;;;;24.20;10.32;;;;;;;;;;5035762;28;20033;-87
2023/01/20 08:55:08;;;;;;;29.58;11.88;;;;;;;;;;5033136;28;20037;-85
2023/01/20 08:57:33;;;;;;;25.27;11.98;;;;;;;;;;5050381;28;20422;-90
2023/01/20 08:59:59;;;;;;;27.63;12.27;;;;;;;;;;5049298;28;20036;-87
2023/01/20 09:02:24;;;;;;;28.65;11.98;;;;;;;;;;5055396;28;20082;-91
2023/01/20 09:04:50;;;;;;;27.50;12.20;;;;;;;;;;5037208;28;20352;-88
2023/01/20 09:07:18;;;;;;;26.80;12.15;;;;;;;;;;5052086;28;20762;-91
2023/01/20 09:09:44;;;;;;;32.42;12.02;;;;;;;;;;5049958;28;20182;-90
2023/01/20 09:12:09;;;;;;;30.10;12.30;;;;;;;;;;5037586;28;20627;-90
2023/01/20 09:14:35;;;;;;;27.00;12.40;;;;;;;;;;5008985;28;20106;-86
2023/01/20 09:17:01;;;;;;;25.52;12.18;;;;;;;;;;5022850;28;20060;-92
2023/01/20 09:19:30;;;;;;;29.50;12.15;;;;;;;;;;5032001;28;20112;-89
2023/01/20 09:21:55;;;;;;;26.13;11.98;;;;;;;;;;5048188;28;20036;-89
2023/01/20 09:24:21;;;;;;;28.77;11.57;;;;;;;;;;5031981;28;20036;-87
2023/01/20 09:26:47;;;;;;;28.05;12.27;;;;;;;;;;5032701;28;20396;-90
2023/01/20 09:29:15;;;;;;;24.17;11.60;;;;;;;;;;5031971;28;20491;-93
2023/01/20 09:31:44;;;;;;;;;;;;;;;;;;5048467;28;20700;-90
2023/01/20 09:34:20;;;;;;;24.60;10.85;;;;;;;;;;5043766;28;20462;-91
2023/01/20 09:36:52;;;;;;;26.30;11.75;;;;;;;;;;5035096;28;20036;-91
2023/01/20 09:45:23;;;;;;;25.63;11.95;;;;;;;;;;5049840;28;20090;-92
2023/01/20 09:47:49;;;;;;;24.52;10.45;;;;;;;;;;5049927;28;20115;-90
2023/01/20 09:53:29;;;;;;;27.85;12.10;;;;;;;;;;5064746;28;20202;-88
2023/01/20 09:55:59;;;;;;;29.73;11.70;;;;;;;;;;5046021;28;20024;-88
2023/01/20 09:59:02;;;;;;;29.73;12.30;;;;;;;;;;5030834;28;20034;-83
2023/01/20 10:01:41;;;;;;;27.77;12.18;;;;;;;;;;5028972;28;20048;-88
2023/01/20 10:04:12;;;;;;;23.55;11.52;;;;;;;;;;5047890;28;20039;-89
2023/01/20 10:06:50;;;;;;;27.25;11.85;;;;;;;;;;5063926;28;20392;-89
2023/01/20 10:09:21;;;;;;;28.73;12.68;;;;;;;;;;5037482;28;20040;-87
2023/01/20 10:11:47;;;;;;;27.58;12.80;;;;;;;;;;5032477;28;20058;-88
2023/01/20 10:14:33;;;;;;;30.77;13.20;;;;;;;;;;5050428;28;20063;-89
2023/01/20 10:17:07;;;;;;;25.85;11.82;;;;;;;;;;5029852;28;20059;-89
2023/01/20 10:19:41;;;;;;;24.83;11.60;;;;;;;;;;5031431;28;20508;-91
2023/01/20 10:22:15;;;;;;;27.35;12.23;;;;;;;;;;5030364;28;20036;-90
2023/01/20 10:25:19;;;;;;;28.73;11.93;;;;;;;;;;5012659;28;20408;-90
2023/01/20 10:28:11;;;;;;;22.38;10.25;;;;;;;;;;5049804;28;20048;-89
2023/01/20 10:30:37;;;;;;;25.90;11.40;;;;;;;;;;5031718;28;20477;-89
2023/01/20 10:33:13;;;;;;;24.00;10.02;;;;;;;;;;5031222;28;20888;-90
2023/01/20 10:35:53;;;;;;;23.07;11.40;;;;;;;;;;5019060;28;20048;-90
2023/01/20 10:38:37;;;;;;;24.70;11.65;;;;;;;;;;5024890;28;20037;-89
2023/01/20 10:41:10;;;;;;;26.90;12.00;;;;;;;;;;5046042;28;20967;-92
2023/01/20 10:43:36;;;;;;;22.85;11.40;;;;;;;;;;5030014;28;20074;-91
2023/01/20 10:46:01;;;;;;;28.80;12.27;;;;;;;;;;5029426;28;20033;-87
2023/01/20 10:48:45;;;;;;;27.83;11.73;;;;;;;;;;5047348;28;20123;-87
2023/01/20 10:51:27;;;;;;;23.70;11.80;;;;;;;;;;5051810;28;20044;-89
2023/01/20 10:53:58;;;;;;;27.30;12.25;;;;;;;;;;5046664;28;20040;-88
2023/01/20 10:56:52;;;;;;;25.58;11.48;;;;;;;;;;5044733;28;20044;-89
2023/01/20 10:59:23;;;;;;;25.63;11.57;;;;;;;;;;5047729;28;20478;-89
2023/01/20 11:01:50;;;;;;;24.27;12.23;;;;;;;;;;5047131;28;20041;-89
2023/01/20 11:04:19;;;;;;;25.38;11.85;;;;;;;;;;5027797;28;20559;-88
2023/01/20 11:06:48;;;;;;;23.50;11.30;;;;;;;;;;5044204;28;20610;-90
2023/01/20 11:09:22;;;;;;;21.38;10.60;;;;;;;;;;5046296;28;20040;-89
2023/01/20 11:11:48;;;;;;;23.38;11.75;;;;;;;;;;5029878;28;20518;-88
2023/01/20 11:14:13;;;;;;;25.23;11.23;;;;;;;;;;5032651;28;20049;-88
2023/01/20 11:16:41;;;;;;;23.85;10.88;;;;;;;;;;5046779;28;20164;-90
2023/01/20 11:19:06;;;;;;;23.73;11.63;;;;;;;;;;5033004;28;20028;-90
2023/01/20 11:21:35;;;;;;;24.52;11.15;;;;;;;;;;5033196;28;20055;-92
2023/01/20 11:24:02;;;;;;;23.52;10.45;;;;;;;;;;5049354;28;20082;-93
2023/01/20 11:26:36;;;;;;;21.75;10.60;;;;;;;;;;5048282;28;20036;-93
2023/01/20 11:29:10;;;;;;;24.10;11.32;;;;;;;;;;5037886;28;20040;-93
2023/01/20 11:31:39;;;;;;;21.63;10.73;;;;;;;;;;5051734;28;20376;-91
2023/01/20 11:34:22;;;;;;;22.58;10.43;;;;;;;;;;5048303;28;20058;-93
2023/01/20 11:36:49;;;;;;;22.65;10.45;;;;;;;;;;5029879;28;20119;-92
2023/01/20 11:39:29;;;;;;;25.35;11.75;;;;;;;;;;5031329;28;20020;-89
2023/01/20 11:42:18;;;;;;;23.27;10.85;;;;;;;;;;5046221;28;20033;-92
2023/01/20 11:44:56;;;;;;;27.25;11.30;;;;;;;;;;5066008;28;20039;-91
2023/01/20 11:47:26;;;;;;;23.13;11.30;;;;;;;;;;5065209;28;20024;-90
2023/01/20 11:50:03;;;;;;;23.75;10.95;;;;;;;;;;5035619;28;20068;-89
2023/01/20 11:52:34;;;;;;;24.42;12.18;;;;;;;;;;5063385;28;20043;-88
2023/01/20 11:55:23;;;;;;;26.33;11.32;;;;;;;;;;5028991;28;20045;-93
2023/01/20 11:57:57;;;;;;;25.25;11.70;;;;;;;;;;5023131;28;20040;-88
2023/01/20 12:00:29;;;;;;;23.17;10.93;;;;;;;;;;5029141;28;20036;-89
2023/01/20 12:03:03;;;;;;;24.70;11.23;;;;;;;;;;5050246;28;20047;-90
2023/01/20 12:05:34;;;;;;;22.25;10.25;;;;;;;;;;5065643;28;20043;-89
2023/01/20 12:08:01;;;;;;;21.23;10.10;;;;;;;;;;5063015;28;20040;-91
2023/01/20 12:10:49;;;;;;;21.27;10.90;;;;;;;;;;5028597;28;20143;-88
2023/01/20 12:13:27;;;;;;;21.30;9.60;;;;;;;;;;4981537;28;20161;-90
2023/01/20 12:15:55;;;;;;;23.00;10.18;;;;;;;;;;4982947;28;20069;-89
2023/01/20 12:18:46;;;;;;;21.27;10.13;;;;;;;;;;4985823;28;20038;-88
2023/01/20 12:21:17;;;;;;;24.83;10.32;;;;;;;;;;5001299;28;20505;-91
2023/01/20 12:23:54;;;;;;;26.58;10.73;;;;;;;;;;4988909;28;20549;-90
2023/01/20 12:26:21;;;;;;;23.48;10.18;;;;;;;;;;4978877;28;20040;-91
2023/01/20 12:28:52;;;;;;;22.42;10.60;;;;;;;;;;4983424;28;20041;-88
2023/01/20 12:31:19;;;;;;;22.67;11.02;;;;;;;;;;5000399;28;20501;-90
2023/01/20 12:33:48;;;;;;;20.38;11.07;;;;;;;;;;4985513;28;20045;-90
2023/01/20 12:36:34;;;;;;;20.25;10.38;;;;;;;;;;4968786;28;20141;-88
2023/01/20 12:39:08;;;;;;;24.35;11.45;;;;;;;;;;4993520;28;20087;-91
2023/01/20 12:42:05;;;;;;;22.77;10.32;;;;;;;;;;5005805;28;20069;-91
2023/01/20 12:44:46;;;;;;;21.88;10.75;;;;;;;;;;5005516;28;20117;-87
2023/01/20 12:47:17;;;;;;;20.90;10.38;;;;;;;;;;4983043;28;20064;-87
2023/01/20 12:49:51;;;;;;;27.98;11.45;;;;;;;;;;5002008;28;20041;-90
2023/01/20 12:52:35;;;;;;;20.92;10.07;;;;;;;;;;5028641;28;20037;-89
2023/01/20 12:55:13;;;;;;;22.05;9.95;;;;;;;;;;5019118;28;20587;-90
2023/01/20 12:58:02;;;;;;;19.77;9.45;;;;;;;;;;5028713;28;20045;-87
2023/01/20 13:01:03;;;;;;;22.83;10.25;;;;;;;;;;5000913;28;20048;-88
2023/01/20 13:03:47;;;;;;;22.88;9.85;;;;;;;;;;5018752;28;20048;-87
2023/01/20 13:06:34;;;;;;;19.52;9.55;;;;;;;;;;5034057;28;20532;-88
2023/01/20 13:09:28;;;;;;;19.58;9.88;;;;;;;;;;5020189;28;20396;-89
2023/01/20 13:11:59;;;;;;;21.02;10.07;;;;;;;;;;5027076;28;20078;-89
2023/01/20 13:14:44;;;;;;;27.15;12.30;;;;;;;;;;5047923;28;20065;-91
2023/01/20 13:17:28;;;;;;;21.70;10.95;;;;;;;;;;5030454;28;20067;-88
2023/01/20 13:19:56;;;;;;;22.75;10.57;;;;;;;;;;5023317;28;20090;-91
2023/01/20 13:22:23;;;;;;;20.70;11.18;;;;;;;;;;5029671;28;20556;-91
2023/01/20 13:24:54;;;;;;;20.63;10.32;;;;;;;;;;5018052;28;20029;-89
2023/01/20 13:27:25;;;;;;;22.13;10.38;;;;;;;;;;5029409;28;20025;-91
2023/01/20 13:29:58;;;;;;;22.02;10.50;;;;;;;;;;5048524;28;20052;-89
2023/01/20 13:32:36;;;;;;;19.65;9.98;;;;;;;;;;5067271;28;20033;-88
2023/01/20 13:35:21;;;;;;;19.02;9.98;;;;;;;;;;5038626;28;20039;-88
2023/01/20 13:37:52;;;;;;;20.25;10.23;;;;;;;;;;5048993;28;20503;-88
2023/01/20 13:40:35;;;;;;;21.27;9.98;;;;;;;;;;5025513;28;20727;-88
2023/01/20 13:43:24;;;;;;;19.42;10.52;;;;;;;;;;5036316;28;20037;-88
2023/01/20 13:46:01;;;;;;;26.17;11.38;;;;;;;;;;5042892;28;20044;-86
2023/01/20 13:48:27;;;;;;;;;;;;;;;;;;5048518;28;20037;-87
2023/01/20 13:50:52;;;;;;;21.13;9.50;;;;;;;;;;5040839;28;19923;-88
2023/01/20 13:53:21;;;;;;;19.02;9.93;;;;;;;;;;5032592;28;20036;-87
2023/01/20 13:55:47;;;;;;;17.88;9.48;;;;;;;;;;5046647;28;20036;-87
2023/01/20 13:58:19;;;;;;;21.73;11.00;;;;;;;;;;5052104;28;20043;-87
2023/01/20 14:01:06;;;;;;;21.83;10.30;;;;;;;;;;5037035;28;20048;-90
2023/01/20 14:03:38;;;;;;;20.85;10.77;;;;;;;;;;5006917;28;20044;-91
2023/01/20 14:06:06;;;;;;;22.67;10.50;;;;;;;;;;5005717;28;20433;-87
2023/01/20 14:08:42;;;;;;;22.33;10.63;;;;;;;;;;4988701;28;20067;-88
2023/01/20 14:11:15;;;;;;;20.30;10.80;;;;;;;;;;5002038;28;20565;-88
2023/01/20 14:13:42;;;;;;;21.33;9.35;;;;;;;;;;4990119;28;20227;-85
2023/01/20 14:16:23;;;;;;;20.42;10.02;;;;;;;;;;4989734;28;20599;-91
2023/01/20 14:18:49;;;;;;;22.15;9.82;;;;;;;;;;5012247;28;20493;-93
2023/01/20 14:21:17;;;;;;;19.58;9.65;;;;;;;;;;4990000;28;20052;-92
2023/01/20 14:23:44;;;;;;;20.05;9.20;;;;;;;;;;5008844;28;20043;-89
2023/01/20 14:26:21;;;;;;;19.55;9.90;;;;;;;;;;4989264;28;20856;-89
2023/01/20 14:28:49;;;;;;;20.30;10.60;;;;;;;;;;5006578;28;20124;-89
2023/01/20 14:31:18;;;;;;;20.33;9.75;;;;;;;;;;4989183;28;20057;-90
2023/01/20 14:33:47;;;;;;;21.38;9.77;;;;;;;;;;4992714;28;20037;-89
2023/01/20 14:36:15;;;;;;;22.25;10.23;;;;;;;;;;5005100;28;20421;-88
2023/01/20 14:38:41;;;;;;;20.15;9.85;;;;;;;;;;5006688;28;20061;-88
2023/01/20 14:41:22;;;;;;;20.05;9.25;;;;;;;;;;5020708;28;20155;-90
2023/01/20 14:43:47;;;;;;;20.15;9.10;;;;;;;;;;5022872;28;20136;-90
2023/01/20 14:46:13;;;;;;;19.75;9.27;;;;;;;;;;5046543;28;20116;-89
2023/01/20 14:48:38;;;;;;;19.13;9.63;;;;;;;;;;5047285;28;20078;-90
2023/01/20 14:51:05;;;;;;;21.52;9.40;;;;;;;;;;5046607;28;20028;-91
2023/01/20 14:53:30;;;;;;;19.70;9.32;;;;;;;;;;5030345;28;20048;-91